Time;durP1;ratioP1;P1;durP2;ratioP2;P2;SDS_P1;SDS_P2;PMS_P1;PMS_P2;Temp;Humidity;BMP_temperature;BMP_pressure;BME280_temperature;BME280_humidity;BME280_pressure;Samples;Min_cycle;Max_cycle;Signal;HPM_P1;HPM_P2
2023/01/21 00:02:03;;;;;;;;;;;1.70;99.90;;;;;;5022409;28;20049;-70
2023/01/21 00:04:29;;;;;;;30.55;15.38;;;1.80;99.90;;;;;;5023404;28;19908;-71
2023/01/21 00:06:55;;;;;;;37.07;16.07;;;1.70;99.90;;;;;;5022638;28;20029;-68
2023/01/21 00:09:21;;;;;;;;;;;1.70;99.90;;;;;;5004276;28;20021;-71
2023/01/21 00:11:46;;;;;;;28.92;15.40;;;1.60;99.90;;;;;;5009475;28;19913;-69
2023/01/21 00:14:12;;;;;;;30.67;16.47;;;1.70;99.90;;;;;;5018857;28;20077;-70
2023/01/21 00:16:37;;;;;;;32.30;17.67;;;1.70;99.90;;;;;;5009981;28;20071;-71
2023/01/21 00:19:03;;;;;;;41.37;18.77;;;1.70;99.90;;;;;;5023477;28;20504;-73
2023/01/21 00:21:29;;;;;;;32.17;18.40;;;1.70;99.90;;;;;;5020081;28;20033;-74
2023/01/21 00:23:54;;;;;;;34.80;16.87;;;1.60;99.90;;;;;;5024104;28;20096;-72
2023/01/21 00:26:20;;;;;;;35.10;18.17;;;1.60;99.90;;;;;;5023791;28;20120;-69
2023/01/21 00:28:45;;;;;;;30.87;18.13;;;1.60;99.90;;;;;;5017612;28;20030;-73
2023/01/21 00:31:11;;;;;;;33.77;18.87;;;1.60;99.90;;;;;;5018448;28;20448;-73
2023/01/21 00:33:37;;;;;;;34.95;17.92;;;1.60;99.90;;;;;;5027574;28;20026;-75
2023/01/21 00:36:11;;;;;;;34.40;18.57;;;1.60;99.90;;;;;;5021959;28;20035;-69
2023/01/21 00:38:37;;;;;;;34.47;17.77;;;1.60;99.90;;;;;;5017315;28;20380;-70
2023/01/21 00:41:09;;;;;;;34.58;18.33;;;1.70;99.90;;;;;;5023600;28;20041;-72
2023/01/21 00:43:35;;;;;;;33.72;17.30;;;1.70;99.90;;;;;;5022690;28;20025;-70
2023/01/21 00:46:01;;;;;;;34.83;17.95;;;1.60;99.90;;;;;;5025300;28;20036;-72
2023/01/21 00:48:27;;;;;;;33.10;17.20;;;1.60;99.90;;;;;;5016457;28;20493;-69
2023/01/21 00:50:54;;;;;;;32.15;16.23;;;1.60;99.90;;;;;;5021729;28;20052;-70
2023/01/21 00:53:22;;;;;;;33.90;17.52;;;1.50;99.90;;;;;;5022463;28;20029;-70
2023/01/21 00:55:47;;;;;;;35.53;18.15;;;1.50;99.90;;;;;;5023271;28;20818;-70
2023/01/21 00:58:13;;;;;;;30.70;18.40;;;1.50;99.90;;;;;;5020015;28;20029;-69
2023/01/21 01:00:38;;;;;;;35.50;18.73;;;1.50;99.90;;;;;;5015910;28;20038;-68
2023/01/21 01:03:04;;;;;;;35.37;17.30;;;1.50;99.90;;;;;;5022700;28;20272;-72
2023/01/21 01:05:30;;;;;;;37.25;19.08;;;1.30;99.90;;;;;;5016259;28;20603;-70
2023/01/21 01:07:55;;;;;;;38.17;19.50;;;1.20;99.90;;;;;;5023303;28;20453;-71
2023/01/21 01:10:21;;;;;;;36.90;20.50;;;1.30;99.90;;;;;;5016937;28;20760;-71
2023/01/21 01:12:47;;;;;;;34.95;17.73;;;1.30;99.90;;;;;;5022892;28;20037;-72
2023/01/21 01:15:12;;;;;;;52.17;24.60;;;1.30;99.90;;;;;;5024381;28;20066;-70
2023/01/21 01:17:38;;;;;;;64.50;33.47;;;1.40;99.90;;;;;;5018087;28;20276;-73
2023/01/21 01:20:05;;;;;;;42.53;24.33;;;1.40;99.90;;;;;;5018780;28;20140;-71
2023/01/21 01:22:30;;;;;;;;;;;1.40;99.90;;;;;;5019681;28;20029;-73
2023/01/21 01:24:56;;;;;;;42.97;18.65;;;1.40;99.90;;;;;;5018181;28;19909;-72
2023/01/21 01:27:21;;;;;;;39.37;20.10;;;1.50;99.90;;;;;;5025365;28;20040;-72
2023/01/21 01:29:47;;;;;;;40.20;19.47;;;1.50;99.90;;;;;;5020432;28;20018;-74
2023/01/21 01:32:13;;;;;;;38.50;20.15;;;1.50;99.90;;;;;;5014928;28;20049;-73
2023/01/21 01:34:38;;;;;;;37.67;20.33;;;1.50;99.90;;;;;;5020548;28;20107;-73
2023/01/21 01:37:04;;;;;;;37.97;19.00;;;1.50;99.90;;;;;;5018779;28;20505;-72
2023/01/21 01:39:30;;;;;;;44.60;21.87;;;1.40;99.90;;;;;;5019379;28;20118;-74
2023/01/21 01:41:56;;;;;;;44.60;21.50;;;1.50;99.90;;;;;;5022048;28;20037;-73
2023/01/21 01:44:53;;;;;;;37.53;20.25;;;1.50;99.90;;;;;;5022725;28;20037;-71
2023/01/21 01:47:19;;;;;;;37.22;19.48;;;1.50;99.90;;;;;;5025417;28;20091;-71
2023/01/21 01:49:46;;;;;;;35.78;18.00;;;1.50;99.90;;;;;;5018124;28;20026;-69
2023/01/21 01:52:13;;;;;;;35.90;19.65;;;1.60;99.90;;;;;;5024840;28;20483;-70
2023/01/21 01:54:43;;;;;;;34.83;16.83;;;1.60;99.90;;;;;;5005428;28;20033;-69
2023/01/21 01:57:11;;;;;;;32.20;16.35;;;1.60;99.90;;;;;;5016941;28;20029;-69
2023/01/21 01:59:39;;;;;;;31.58;16.77;;;1.60;99.90;;;;;;5018879;28;20500;-70
2023/01/21 02:02:08;;;;;;;36.05;17.73;;;1.60;99.90;;;;;;5023011;28;20136;-71
2023/01/21 02:04:53;;;;;;;33.25;18.75;;;1.60;99.90;;;;;;5030138;28;20499;-73
2023/01/21 02:07:21;;;;;;;34.05;18.17;;;1.60;99.90;;;;;;5022992;28;20072;-70
2023/01/21 02:09:47;;;;;;;30.70;17.35;;;1.60;99.90;;;;;;5026755;28;20109;-68
2023/01/21 02:12:14;;;;;;;35.00;18.75;;;1.60;99.90;;;;;;5028245;28;20100;-69
2023/01/21 02:14:42;;;;;;;36.42;18.55;;;1.60;99.90;;;;;;5025618;28;20057;-70
2023/01/21 02:17:16;;;;;;;33.25;18.45;;;1.60;99.90;;;;;;5025270;28;20505;-71
2023/01/21 02:20:16;;;;;;;43.17;19.70;;;1.60;99.90;;;;;;5028365;28;20484;-72
2023/01/21 02:23:03;;;;;;;39.40;20.17;;;1.60;99.90;;;;;;5024220;28;20493;-73
2023/01/21 02:25:44;;;;;;;38.22;19.48;;;1.50;99.90;;;;;;5022370;28;20030;-72
2023/01/21 02:28:15;;;;;;;34.22;18.60;;;1.50;99.90;;;;;;5007179;28;20120;-73
2023/01/21 02:31:10;;;;;;;38.97;19.50;;;1.60;99.90;;;;;;5022370;28;20021;-70
2023/01/21 02:33:51;;;;;;;34.83;18.27;;;1.50;99.90;;;;;;5011721;28;20032;-72
2023/01/21 02:36:33;;;;;;;34.90;19.13;;;1.50;99.90;;;;;;5025451;28;20489;-71
2023/01/21 02:39:05;;;;;;;34.63;18.85;;;1.40;99.90;;;;;;5022488;28;20037;-73
2023/01/21 02:42:01;;;;;;;33.63;17.95;;;1.50;99.90;;;;;;5028120;28;20572;-73
2023/01/21 02:44:36;;;;;;;36.13;19.27;;;1.40;99.90;;;;;;5020225;28;20521;-69
2023/01/21 02:47:05;;;;;;;36.78;19.10;;;1.50;99.90;;;;;;5028130;28;20033;-73
2023/01/21 02:49:47;;;;;;;34.75;18.63;;;1.50;99.90;;;;;;5027560;28;20032;-73
2023/01/21 02:52:20;;;;;;;35.38;18.35;;;1.50;99.90;;;;;;5024577;28;20041;-69
2023/01/21 02:54:55;;;;;;;35.70;19.38;;;1.50;99.90;;;;;;5019418;28;20034;-70
2023/01/21 02:57:33;;;;;;;36.17;21.08;;;1.50;99.90;;;;;;5019511;28;20034;-72
2023/01/21 03:00:01;;;;;;;34.17;18.83;;;1.50;99.90;;;;;;5017774;28;20080;-71
2023/01/21 03:02:51;;;;;;;41.95;20.30;;;1.50;99.90;;;;;;5026986;28;20045;-71
2023/01/21 03:05:28;;;;;;;34.15;18.63;;;1.50;99.90;;;;;;5026612;28;20025;-71
2023/01/21 03:08:17;;;;;;;35.85;19.00;;;1.50;99.90;;;;;;5022302;28;20056;-72
2023/01/21 03:10:54;;;;;;;33.35;17.95;;;1.60;99.90;;;;;;5026105;28;20044;-69
2023/01/21 03:19:08;;;;;;;36.40;18.95;;;1.40;99.90;;;;;;5026895;28;20033;-73
2023/01/21 03:21:35;;;;;;;31.45;18.73;;;1.50;99.90;;;;;;5023775;28;20030;-73
2023/01/21 03:24:01;;;;;;;33.40;17.60;;;1.50;99.90;;;;;;5025105;28;20466;-70
2023/01/21 03:26:30;;;;;;;;;;;1.50;99.90;;;;;;5024356;28;20418;-71
2023/01/21 03:28:59;;;;;;;33.63;16.92;;;1.60;99.90;;;;;;5021830;28;19909;-71
2023/01/21 03:31:29;;;;;;;31.13;17.25;;;1.60;99.90;;;;;;5026392;28;20026;-69
2023/01/21 03:33:59;;;;;;;36.80;17.65;;;1.60;99.90;;;;;;5020985;28;20013;-70
2023/01/21 03:36:40;;;;;;;29.45;17.23;;;1.60;99.90;;;;;;5027468;28;20037;-70
2023/01/21 03:39:24;;;;;;;32.83;17.58;;;1.60;99.90;;;;;;5027442;28;20030;-73
2023/01/21 03:41:50;;;;;;;35.78;17.73;;;1.70;99.90;;;;;;5026824;28;20513;-72
2023/01/21 03:44:15;;;;;;;32.70;17.80;;;1.70;99.90;;;;;;5027458;28;20075;-73
2023/01/21 03:46:50;;;;;;;37.53;19.17;;;1.70;99.90;;;;;;5023621;28;20033;-74
2023/01/21 03:49:22;;;;;;;32.85;18.30;;;1.70;99.90;;;;;;5020473;28;20029;-73
2023/01/21 03:51:54;;;;;;;37.25;19.40;;;1.70;99.90;;;;;;5028287;28;20055;-73
2023/01/21 03:54:21;;;;;;;30.98;17.55;;;1.70;99.90;;;;;;5017697;28;20018;-72
2023/01/21 03:56:46;;;;;;;;;;;1.70;99.90;;;;;;5018774;28;20101;-74
2023/01/21 03:59:12;;;;;;;28.40;16.55;;;1.70;99.90;;;;;;5021832;28;20007;-72
2023/01/21 04:01:38;;;;;;;29.47;16.33;;;1.70;99.90;;;;;;5023720;28;20075;-68
2023/01/21 04:04:04;;;;;;;27.83;16.33;;;1.70;99.90;;;;;;5020361;28;20283;-73
2023/01/21 04:06:30;;;;;;;;;;;1.70;99.90;;;;;;5022939;28;20113;-69
2023/01/21 04:08:56;;;;;;;33.78;18.02;;;1.70;99.90;;;;;;5008538;28;20004;-68
2023/01/21 04:11:21;;;;;;;34.73;18.53;;;1.70;99.90;;;;;;5023478;28;20056;-68
2023/01/21 04:13:47;;;;;;;38.43;18.37;;;1.70;99.90;;;;;;5019560;28;20281;-69
2023/01/21 04:16:12;;;;;;;43.33;21.47;;;1.70;99.90;;;;;;5017847;28;20398;-69
2023/01/21 04:18:38;;;;;;;45.43;20.93;;;1.60;99.90;;;;;;5025859;28;20029;-71
2023/01/21 04:21:03;;;;;;;43.53;22.20;;;1.60;99.90;;;;;;5023092;28;20120;-72
2023/01/21 04:23:29;;;;;;;41.50;21.73;;;1.60;99.90;;;;;;5025376;28;20057;-69
2023/01/21 04:25:55;;;;;;;38.22;19.80;;;1.60;99.90;;;;;;5019220;28;20034;-72
2023/01/21 04:28:20;;;;;;;35.87;21.07;;;1.60;99.90;;;;;;5024335;28;20555;-69
2023/01/21 04:30:47;;;;;;;39.90;20.93;;;1.60;99.90;;;;;;5019518;28;20025;-72
2023/01/21 04:33:13;;;;;;;44.15;21.15;;;1.50;99.90;;;;;;5027076;28;20096;-69
2023/01/21 04:35:38;;;;;;;36.67;21.00;;;1.60;99.90;;;;;;5018798;28;20041;-69
2023/01/21 04:38:05;;;;;;;39.37;19.87;;;1.60;99.90;;;;;;5007376;28;20108;-73
2023/01/21 04:40:30;;;;;;;39.22;20.33;;;1.70;99.90;;;;;;5005491;28;20037;-72
2023/01/21 04:42:56;;;;;;;34.70;19.50;;;1.70;99.90;;;;;;5026973;28;20091;-70
2023/01/21 04:45:22;;;;;;;41.00;21.00;;;1.70;99.90;;;;;;5022976;28;20029;-72
2023/01/21 04:47:47;;;;;;;34.60;18.67;;;1.60;99.90;;;;;;5022516;28;20302;-71
2023/01/21 04:50:14;;;;;;;32.97;18.02;;;1.70;99.90;;;;;;5022432;28;20101;-69
2023/01/21 04:52:40;;;;;;;;;;;1.70;99.90;;;;;;5024326;28;20033;-71
2023/01/21 04:55:07;;;;;;;29.52;16.55;;;1.70;99.90;;;;;;5025707;28;19909;-73
2023/01/21 04:57:33;;;;;;;36.40;18.05;;;1.70;99.90;;;;;;5020718;28;20078;-73
2023/01/21 04:59:59;;;;;;;35.25;19.45;;;1.70;99.90;;;;;;5017375;28;20053;-73
2023/01/21 05:02:25;;;;;;;36.53;20.45;;;1.70;99.90;;;;;;5020657;28;20064;-72
2023/01/21 05:04:50;;;;;;;36.47;20.27;;;1.70;99.90;;;;;;5025935;28;20030;-70
2023/01/21 05:07:16;;;;;;;39.40;21.80;;;1.70;99.90;;;;;;5017739;28;20087;-70
2023/01/21 05:09:41;;;;;;;45.20;21.77;;;1.70;99.90;;;;;;5022062;28;20489;-73
2023/01/21 05:12:08;;;;;;;41.30;21.83;;;1.70;99.90;;;;;;5022345;28;20033;-69
2023/01/21 05:14:33;;;;;;;44.05;21.92;;;1.70;99.90;;;;;;5023211;28;20280;-71
2023/01/21 05:16:59;;;;;;;42.13;22.40;;;1.60;99.90;;;;;;5019051;28;20401;-70
2023/01/21 05:19:25;;;;;;;37.13;20.80;;;1.60;99.90;;;;;;5022567;28;20308;-71
2023/01/21 05:21:50;;;;;;;33.30;19.90;;;1.60;99.90;;;;;;5018200;28;20116;-69
2023/01/21 05:24:16;;;;;;;37.80;22.03;;;1.70;99.90;;;;;;5021805;28;20030;-69
2023/01/21 05:26:42;;;;;;;37.97;21.73;;;1.60;99.90;;;;;;5022205;28;20037;-69
2023/01/21 05:29:09;;;;;;;41.00;22.02;;;1.50;99.90;;;;;;5022605;28;20109;-69
2023/01/21 05:31:35;;;;;;;;;;;1.40;99.90;;;;;;5019749;28;20450;-72
2023/01/21 05:34:00;;;;;;;39.13;20.38;;;1.50;99.90;;;;;;5016232;28;19917;-71
2023/01/21 05:36:26;;;;;;;36.35;19.58;;;1.50;99.90;;;;;;5018306;28;20088;-70
2023/01/21 05:38:52;;;;;;;36.72;19.55;;;1.50;99.90;;;;;;5016435;28;20037;-71
2023/01/21 05:41:18;;;;;;;41.33;19.87;;;1.50;99.90;;;;;;5018618;28;20041;-70
2023/01/21 05:43:43;;;;;;;31.10;15.88;;;1.50;99.90;;;;;;5024471;28;20032;-70
2023/01/21 05:46:09;;;;;;;34.08;16.15;;;1.40;99.90;;;;;;5020270;28;20085;-71
2023/01/21 05:48:35;;;;;;;23.42;12.77;;;1.40;99.90;;;;;;5022968;28;20022;-71
2023/01/21 05:51:00;;;;;;;25.70;13.67;;;1.40;99.90;;;;;;5019716;28;20036;-72
2023/01/21 05:53:26;;;;;;;23.13;13.30;;;1.30;99.90;;;;;;5025450;28;20411;-70
2023/01/21 05:55:53;;;;;;;18.55;11.32;;;1.30;99.90;;;;;;5024436;28;20091;-73
2023/01/21 05:58:20;;;;;;;22.25;12.05;;;1.20;99.90;;;;;;5016971;28;20064;-70
2023/01/21 06:00:47;;;;;;;25.15;12.77;;;1.10;99.90;;;;;;5016732;28;20034;-73
2023/01/21 06:03:13;;;;;;;21.52;12.18;;;1.00;99.90;;;;;;5022805;28;20040;-72
2023/01/21 06:05:40;;;;;;;21.95;12.68;;;1.10;99.90;;;;;;5019564;28;20025;-71
2023/01/21 06:08:06;;;;;;;22.08;12.73;;;1.10;99.90;;;;;;5007375;28;20079;-71
2023/01/21 06:10:32;;;;;;;26.02;12.40;;;1.00;99.90;;;;;;5018370;28;20040;-72
2023/01/21 06:12:57;;;;;;;21.83;12.27;;;0.90;99.90;;;;;;5018908;28;20412;-69
2023/01/21 06:15:24;;;;;;;24.57;12.30;;;0.80;99.90;;;;;;5023319;28;20152;-70
2023/01/21 06:17:53;;;;;;;19.73;11.45;;;0.70;99.90;;;;;;5018231;28;20022;-69
2023/01/21 06:20:19;;;;;;;18.90;10.85;;;0.60;99.90;;;;;;5021729;28;20045;-69
2023/01/21 06:22:45;;;;;;;19.80;11.52;;;0.60;99.90;;;;;;5021023;28;20041;-69
2023/01/21 06:25:11;;;;;;;20.42;11.25;;;0.60;99.90;;;;;;5014165;28;20042;-69
2023/01/21 06:27:37;;;;;;;22.05;11.52;;;0.70;99.90;;;;;;5023704;28;20021;-70
2023/01/21 06:30:10;;;;;;;24.77;12.80;;;0.80;99.90;;;;;;5019385;28;20116;-69
2023/01/21 06:32:36;;;;;;;24.15;12.18;;;0.80;99.90;;;;;;5022272;28;20037;-69
2023/01/21 06:35:02;;;;;;;22.15;12.13;;;0.70;99.90;;;;;;5020601;28;20029;-70
2023/01/21 06:37:27;;;;;;;17.98;11.02;;;0.60;99.90;;;;;;5023385;28;20169;-69
2023/01/21 06:39:53;;;;;;;16.87;10.63;;;0.50;99.90;;;;;;5020554;28;20041;-72
2023/01/21 06:42:19;;;;;;;18.58;11.52;;;0.40;99.90;;;;;;5017441;28;20037;-71
2023/01/21 06:44:45;;;;;;;16.50;11.15;;;0.40;99.90;;;;;;5019369;28;20449;-69
2023/01/21 06:47:11;;;;;;;21.17;11.48;;;0.40;99.90;;;;;;5021469;28;20084;-71
2023/01/21 06:49:37;;;;;;;27.10;12.90;;;0.50;99.90;;;;;;5021904;28;20037;-70
2023/01/21 06:52:03;;;;;;;23.15;11.85;;;0.60;99.90;;;;;;5024978;28;20033;-69
2023/01/21 06:54:29;;;;;;;22.80;11.65;;;0.60;99.90;;;;;;5028150;28;20544;-71
2023/01/21 06:56:54;;;;;;;22.27;12.90;;;0.60;99.90;;;;;;5021035;28;20100;-72
2023/01/21 06:59:20;;;;;;;28.77;13.67;;;0.60;99.90;;;;;;5026475;28;20038;-72
2023/01/21 07:01:46;;;;;;;37.70;17.67;;;0.60;99.90;;;;;;5010508;28;20386;-72
2023/01/21 07:04:11;;;;;;;40.20;17.25;;;0.60;99.90;;;;;;5025710;28;20410;-72
2023/01/21 07:06:37;;;;;;;27.47;13.83;;;0.60;99.90;;;;;;5026239;28;20057;-72
2023/01/21 07:09:04;;;;;;;24.05;12.82;;;0.60;99.90;;;;;;5023958;28;20036;-73
2023/01/21 07:11:30;;;;;;;22.77;12.48;;;0.60;99.90;;;;;;5022788;28;20532;-72
2023/01/21 07:13:56;;;;;;;23.15;11.82;;;0.60;99.90;;;;;;5024477;28;20037;-72
2023/01/21 07:16:22;;;;;;;26.00;13.52;;;0.60;99.90;;;;;;5021167;28;20037;-74
2023/01/21 07:18:48;;;;;;;23.35;12.82;;;0.50;99.90;;;;;;5016940;28;20021;-73
2023/01/21 07:21:14;;;;;;;25.70;12.63;;;0.50;99.90;;;;;;5018580;28;20394;-72
2023/01/21 07:23:39;;;;;;;26.50;12.80;;;0.50;99.90;;;;;;5022180;28;20291;-73
2023/01/21 07:26:05;;;;;;;27.67;14.07;;;0.40;99.90;;;;;;5017147;28;20037;-74
2023/01/21 07:28:31;;;;;;;32.45;15.30;;;0.40;99.90;;;;;;5020841;28;20271;-74
2023/01/21 07:31:00;;;;;;;25.92;14.15;;;0.40;99.90;;;;;;5022781;28;20041;-72
2023/01/21 07:33:26;;;;;;;27.98;14.43;;;0.40;99.90;;;;;;5025563;28;20029;-72
2023/01/21 07:35:52;;;;;;;26.77;13.52;;;0.40;99.90;;;;;;5022720;28;20396;-72
2023/01/21 07:38:17;;;;;;;26.07;15.17;;;0.40;99.90;;;;;;5024305;28;20038;-70
2023/01/21 07:40:46;;;;;;;28.95;15.65;;;0.40;99.90;;;;;;5024116;28;20041;-72
2023/01/21 07:43:11;;;;;;;29.38;13.68;;;0.40;99.90;;;;;;5023834;28;20031;-72
2023/01/21 07:45:37;;;;;;;23.70;12.30;;;0.40;99.90;;;;;;5017429;28;20037;-69
2023/01/21 07:48:03;;;;;;;29.50;14.43;;;0.50;99.90;;;;;;5022634;28;20820;-71
2023/01/21 07:50:28;;;;;;;28.85;15.15;;;0.50;99.90;;;;;;5016900;28;20036;-74
2023/01/21 07:52:54;;;;;;;31.77;16.37;;;0.40;99.90;;;;;;5012803;28;20525;-73
2023/01/21 07:55:20;;;;;;;32.72;17.52;;;0.50;99.90;;;;;;5005439;28;20040;-75
2023/01/21 07:57:46;;;;;;;25.08;13.93;;;0.40;99.90;;;;;;5019700;28;20038;-71
2023/01/21 08:00:12;;;;;;;32.00;15.77;;;0.40;99.90;;;;;;5015962;28;20024;-74
2023/01/21 08:02:38;;;;;;;;;;;0.40;99.90;;;;;;5022354;28;20041;-73
2023/01/21 08:05:05;;;;;;;24.05;13.23;;;0.40;99.90;;;;;;5020435;28;19913;-72
2023/01/21 08:07:31;;;;;;;24.77;13.50;;;0.50;99.90;;;;;;5020363;28;20061;-75
2023/01/21 08:09:57;;;;;;;25.08;14.10;;;0.50;99.90;;;;;;5027173;28;20100;-72
2023/01/21 08:12:22;;;;;;;25.13;13.27;;;0.60;99.90;;;;;;5017108;28;20409;-72
2023/01/21 08:14:48;;;;;;;34.67;17.50;;;0.60;99.90;;;;;;5022492;28;20025;-72
2023/01/21 08:17:14;;;;;;;42.17;24.33;;;0.60;99.90;;;;;;5020213;28;20456;-71
2023/01/21 08:19:39;;;;;;;41.87;23.83;;;0.60;99.90;;;;;;5026629;28;20044;-75
2023/01/21 08:22:05;;;;;;;39.73;21.10;;;0.80;99.90;;;;;;4997413;28;20030;-73
2023/01/21 08:24:30;;;;;;;24.97;12.40;;;0.80;99.90;;;;;;5024328;28;20269;-70
2023/01/21 08:26:57;;;;;;;37.43;18.93;;;1.10;99.90;;;;;;5023571;28;20425;-76
2023/01/21 08:29:24;;;;;;;17.38;10.00;;;1.50;99.90;;;;;;5024987;28;20025;-74
2023/01/21 08:31:51;;;;;;;35.65;18.17;;;2.70;99.90;;;;;;5006442;28;20171;-69
2023/01/21 08:34:16;;;;;;;;;;;3.80;99.90;;;;;;5024167;28;20017;-73
2023/01/21 08:36:42;;;;;;;22.60;11.35;;;5.40;97.70;;;;;;5020208;28;20486;-75
2023/01/21 08:39:08;;;;;;;34.87;16.17;;;6.50;94.30;;;;;;5012618;28;20461;-69
2023/01/21 08:41:33;;;;;;;30.52;13.75;;;7.40;91.70;;;;;;5016473;28;20045;-71
2023/01/21 08:43:59;;;;;;;26.50;14.20;;;7.90;90.40;;;;;;5025048;28;20037;-69
2023/01/21 08:46:25;;;;;;;11.87;7.17;;;8.20;87.30;;;;;;5019924;28;20025;-71
2023/01/21 08:48:50;;;;;;;26.93;9.17;;;8.00;86.30;;;;;;5020480;28;20574;-69
2023/01/21 08:51:16;;;;;;;10.47;6.97;;;8.00;86.50;;;;;;5019488;28;20485;-68
2023/01/21 08:53:42;;;;;;;13.85;7.30;;;7.50;87.20;;;;;;5020099;28;20025;-72
2023/01/21 08:56:07;;;;;;;11.03;7.00;;;6.90;88.70;;;;;;5021197;28;20044;-67
2023/01/21 08:58:33;;;;;;;15.17;7.17;;;5.90;91.30;;;;;;5022702;28;20265;-68
2023/01/21 09:01:06;;;;;;;13.60;7.33;;;5.30;93.70;;;;;;5014678;28;20044;-68
2023/01/21 09:03:32;;;;;;;13.10;7.70;;;6.20;93.20;;;;;;5018954;28;20271;-70
2023/01/21 09:06:01;;;;;;;23.87;8.13;;;8.10;90.00;;;;;;5024478;28;20037;-70
2023/01/21 09:08:28;;;;;;;12.30;7.28;;;9.40;85.20;;;;;;5019158;28;20053;-71
2023/01/21 09:11:00;;;;;;;11.48;7.20;;;10.10;79.80;;;;;;4996740;28;20420;-71
2023/01/21 09:13:34;;;;;;;9.98;6.57;;;10.90;77.40;;;;;;5019899;28;20030;-69
2023/01/21 09:16:00;;;;;;;13.82;7.32;;;11.60;74.20;;;;;;5005774;28;20030;-70
2023/01/21 09:18:26;;;;;;;12.10;6.93;;;11.60;71.90;;;;;;5020554;28;20025;-72
2023/01/21 09:20:52;;;;;;;21.10;9.17;;;11.60;71.50;;;;;;5004232;28;20056;-71
2023/01/21 09:23:23;;;;;;;11.63;7.00;;;11.80;70.50;;;;;;5019044;28;20037;-72
2023/01/21 09:25:54;;;;;;;11.27;6.85;;;12.40;69.70;;;;;;5023430;28;20037;-71
2023/01/21 09:28:21;;;;;;;14.55;6.97;;;12.50;68.40;;;;;;5022999;28;20396;-72
2023/01/21 09:30:47;;;;;;;17.27;7.15;;;12.30;67.80;;;;;;5019922;28;20100;-73
2023/01/21 09:33:14;;;;;;;12.50;7.57;;;10.10;71.40;;;;;;5025888;28;20144;-71
2023/01/21 09:35:40;;;;;;;8.38;5.82;;;8.70;78.20;;;;;;5008702;28;20562;-72
2023/01/21 09:38:06;;;;;;;7.90;5.72;;;7.80;81.60;;;;;;5025712;28;20022;-72
2023/01/21 09:40:32;;;;;;;14.35;8.05;;;7.20;84.80;;;;;;5021271;28;20046;-70
2023/01/21 09:43:01;;;;;;;;;;;7.10;88.90;;;;;;5017668;28;20108;-70
2023/01/21 09:45:27;;;;;;;13.30;8.45;;;6.70;90.20;;;;;;5017988;28;19915;-71
2023/01/21 09:47:55;;;;;;;18.67;10.93;;;6.10;91.20;;;;;;5020030;28;20026;-69
2023/01/21 09:50:22;;;;;;;13.75;8.25;;;6.00;92.10;;;;;;5020723;28;20504;-70
2023/01/21 09:52:51;;;;;;;13.00;7.82;;;6.00;91.70;;;;;;5004862;28;20029;-69
2023/01/21 09:55:35;;;;;;;12.68;7.90;;;6.30;91.90;;;;;;5025150;28;20010;-70
2023/01/21 09:58:21;;;;;;;11.85;7.47;;;6.60;90.50;;;;;;5019819;28;20515;-71
2023/01/21 10:01:01;;;;;;;14.77;7.72;;;6.20;91.40;;;;;;5020325;28;20040;-70
2023/01/21 10:03:39;;;;;;;13.77;7.93;;;5.90;91.40;;;;;;5020597;28;20022;-68
2023/01/21 10:06:27;;;;;;;13.18;7.72;;;5.40;93.10;;;;;;5025686;28;20064;-69
2023/01/21 10:08:56;;;;;;;12.13;7.82;;;5.00;94.20;;;;;;5015795;28;20568;-70
2023/01/21 10:11:41;;;;;;;15.30;7.00;;;4.70;95.40;;;;;;5021171;28;20029;-71
2023/01/21 10:14:12;;;;;;;11.40;6.97;;;4.50;95.70;;;;;;5005198;28;20115;-68
2023/01/21 10:16:59;;;;;;;12.20;7.40;;;4.50;96.00;;;;;;5014047;28;20497;-71
2023/01/21 10:19:35;;;;;;;12.95;6.88;;;4.50;95.70;;;;;;5023216;28;20044;-71
2023/01/21 10:22:08;;;;;;;13.15;7.38;;;4.50;95.20;;;;;;5026068;28;20412;-71
2023/01/21 10:25:02;;;;;;;13.95;7.18;;;4.50;95.30;;;;;;5025861;28;20021;-71
2023/01/21 10:27:32;;;;;;;13.25;8.07;;;4.10;96.80;;;;;;4998724;28;20029;-70
2023/01/21 10:30:04;;;;;;;16.90;10.30;;;4.20;97.60;;;;;;5006392;28;20097;-70
2023/01/21 10:32:32;;;;;;;16.35;8.15;;;4.10;98.20;;;;;;5015730;28;20021;-70
2023/01/21 10:34:57;;;;;;;21.17;9.48;;;4.10;97.80;;;;;;5021387;28;20394;-71
2023/01/21 10:37:44;;;;;;;15.73;8.93;;;4.10;98.70;;;;;;5012850;28;20022;-71
2023/01/21 10:40:41;;;;;;;15.32;8.55;;;4.00;98.70;;;;;;5018019;28;20178;-72
2023/01/21 10:43:26;;;;;;;17.77;8.88;;;3.90;98.80;;;;;;5019850;28;20068;-72
2023/01/21 10:46:06;;;;;;;15.53;9.07;;;3.90;98.70;;;;;;5018643;28;20029;-68
2023/01/21 10:48:42;;;;;;;13.88;7.95;;;3.70;99.00;;;;;;5017799;28;20400;-68
2023/01/21 10:51:17;;;;;;;23.50;8.63;;;3.60;98.90;;;;;;5018828;28;20017;-69
2023/01/21 10:53:55;;;;;;;13.20;8.48;;;3.60;99.50;;;;;;5018280;28;20057;-67
2023/01/21 10:57:10;;;;;;;12.35;7.78;;;3.70;99.50;;;;;;5017911;28;20053;-70
2023/01/21 10:59:37;;;;;;;18.13;8.82;;;3.70;99.00;;;;;;4983456;28;20549;-69
2023/01/21 11:02:08;;;;;;;20.45;9.55;;;3.70;98.60;;;;;;5015625;28;20073;-71
2023/01/21 11:04:38;;;;;;;14.48;8.45;;;3.70;98.40;;;;;;5014235;28;20064;-71
2023/01/21 11:07:06;;;;;;;13.50;7.85;;;3.80;98.70;;;;;;5014065;28;20122;-70
2023/01/21 11:09:37;;;;;;;19.45;10.90;;;3.90;98.20;;;;;;5021769;28;20032;-72
2023/01/21 11:12:03;;;;;;;15.88;8.32;;;3.90;97.70;;;;;;5016065;28;20029;-71
2023/01/21 11:14:29;;;;;;;14.07;7.97;;;4.30;96.50;;;;;;5021214;28;20511;-74
2023/01/21 11:16:55;;;;;;;13.45;7.47;;;4.50;96.10;;;;;;5020915;28;20557;-71
2023/01/21 11:19:26;;;;;;;13.15;9.00;;;4.60;95.50;;;;;;5024214;28;20092;-71
2023/01/21 11:22:11;;;;;;;16.80;8.23;;;4.80;95.00;;;;;;5020104;28;20041;-72
2023/01/21 11:24:48;;;;;;;12.48;7.97;;;4.90;94.80;;;;;;5023349;28;20044;-71
2023/01/21 11:27:30;;;;;;;12.35;6.25;;;4.90;94.60;;;;;;5022999;28;20633;-71
2023/01/21 11:29:56;;;;;;;18.73;10.15;;;4.80;94.30;;;;;;5021249;28;20044;-71
2023/01/21 11:32:29;;;;;;;12.23;7.33;;;4.80;94.70;;;;;;5021010;28;20497;-70
2023/01/21 11:35:19;;;;;;;12.65;7.25;;;4.70;94.50;;;;;;5023952;28;20083;-72
2023/01/21 11:37:45;;;;;;;15.73;7.90;;;4.90;94.60;;;;;;5023268;28;22661;-73
2023/01/21 11:40:11;;;;;;;14.85;8.80;;;5.00;95.20;;;;;;5024536;28;20052;-74
2023/01/21 11:42:48;;;;;;;16.02;9.82;;;5.20;94.80;;;;;;5003597;28;20036;-73
2023/01/21 11:45:25;;;;;;;;;;;5.40;94.90;;;;;;5024415;28;20030;-71
2023/01/21 11:47:52;;;;;;;15.75;8.63;;;5.40;93.80;;;;;;5028517;28;19916;-74
2023/01/21 11:50:27;;;;;;;16.80;8.38;;;5.30;93.70;;;;;;5009421;28;20025;-73
2023/01/21 11:53:16;;;;;;;9.80;6.20;;;5.30;93.50;;;;;;5027717;28;20401;-72
2023/01/21 11:55:48;;;;;;;12.32;7.40;;;5.50;92.30;;;;;;5024986;28;20036;-71
2023/01/21 11:58:37;;;;;;;15.65;6.63;;;5.40;92.90;;;;;;5020914;28;20080;-71
2023/01/21 12:01:06;;;;;;;12.90;6.68;;;5.30;92.50;;;;;;5021446;28;20572;-78
2023/01/21 12:03:47;;;;;;;10.93;7.47;;;5.60;92.50;;;;;;5025802;28;20017;-70
2023/01/21 12:06:25;;;;;;;14.93;7.05;;;5.60;92.10;;;;;;5021770;28;20057;-71
2023/01/21 12:08:54;;;;;;;10.73;6.45;;;5.40;92.60;;;;;;5017093;28;20025;-72
2023/01/21 12:11:23;;;;;;;11.60;7.07;;;5.50;92.10;;;;;;5018280;28;20034;-70
2023/01/21 12:14:03;;;;;;;10.88;6.22;;;5.50;92.60;;;;;;5015566;28;20033;-70
2023/01/21 12:16:46;;;;;;;11.23;6.63;;;5.30;92.30;;;;;;5012739;28;20084;-70
2023/01/21 12:19:57;;;;;;;16.88;7.50;;;5.30;92.80;;;;;;5016768;28;20037;-71
2023/01/21 12:22:38;;;;;;;16.40;8.40;;;5.40;92.20;;;;;;4937607;28;20134;-71
2023/01/21 12:25:22;;;;;;;16.08;7.30;;;5.50;92.80;;;;;;5014293;28;20116;-71
2023/01/21 12:27:59;;;;;;;11.43;5.60;;;5.60;93.00;;;;;;5019368;28;20029;-70
2023/01/21 12:30:49;;;;;;;10.73;5.90;;;5.40;90.80;;;;;;5018135;28;20045;-70
2023/01/21 12:34:02;;;;;;;7.63;4.68;;;5.40;91.10;;;;;;4997775;28;20053;-70
2023/01/21 12:36:46;;;;;;;10.52;4.72;;;5.20;89.50;;;;;;5017364;28;20033;-69
2023/01/21 12:39:39;;;;;;;10.38;6.10;;;5.20;90.00;;;;;;5015317;28;20057;-69
2023/01/21 12:42:14;;;;;;;13.25;4.78;;;5.20;90.30;;;;;;5013073;28;20045;-71
2023/01/21 12:44:48;;;;;;;10.23;4.85;;;5.10;89.30;;;;;;5014578;28;20037;-70
2023/01/21 12:47:22;;;;;;;8.90;4.88;;;5.20;90.40;;;;;;5014913;28;20022;-70
2023/01/21 12:49:53;;;;;;;8.32;5.10;;;5.10;88.70;;;;;;5017104;28;20131;-69
2023/01/21 12:52:29;;;;;;;10.70;5.07;;;5.00;90.90;;;;;;5012254;28;20116;-70
2023/01/21 12:55:21;;;;;;;12.40;4.75;;;5.00;90.70;;;;;;5011226;28;20228;-69
2023/01/21 12:58:12;;;;;;;11.00;5.30;;;5.10;91.50;;;;;;5009994;28;20030;-70
2023/01/21 13:00:41;;;;;;;8.90;4.72;;;4.90;91.40;;;;;;5009280;28;20049;-70
2023/01/21 13:03:20;;;;;;;9.82;5.47;;;4.70;91.80;;;;;;5020268;28;20026;-71
2023/01/21 13:06:01;;;;;;;11.68;5.55;;;4.80;91.20;;;;;;5024506;28;20159;-72